Portada
METAR-TAF:

METAR-TAF

Aeroports :

Aeroport de Palma - Son Sant Joan

Palma, Espanya

latitud: 39-33N, longitud: 002-44E, altitud: 4 m

Observació

L'informe es va fer fa 29 minuts, a les 23:00 UTC
Vent 3 kt del Est, variant entre Est i Sud-Est
Temperatura 18°C
Humitat 73%
Pressió 1016 hPa
Visibilitat 10 km o més
sense núvols per sota de 1500 mi sense presència de cumulonimbus.

METAR: LEPA 292300Z 10003KT 080V140 CAVOK 18/13 Q1016 NOSIG

Hora: 01:29 (23:29 UTC)

Pronòstic

L'informe es va fer fa 6 hores i 29 minuts, a les 17:00 UTC
Pronòstic vàlid del 29 a les 18 UTC al 30 a les 18 UTC
Vent 4 kt amb direcció variable
Visibilitat 10 km o més
Escasses núvols a una alçada de 3000 ft
Evolucionant progressivament
l' 30 a les 08 UTC al 30 a les 10 UTC
Vent 10 kt del Sud-Oest
Evolucionant progressivament
l' 30 a les 16 UTC al 30 a les 18 UTC
Vent 4 kt amb direcció variable

TAF: LEPA 291700Z 2918/3018 VRB04KT 9999 FEW030 TX27/3012Z TN14/3006Z BECMG 3008/3010 22010KT BECMG 3016/3018 VRB04KT

Observacions i pronòstics meteorològics de més de 4000 aeroports (METAR i TAF).

Les estacions disponibles són els punts grocs i vermells al mapa.

Posi el ratolí al punt desitjat per veure el nom de l'estació.

Feu clic per veure les observacions i els pronòstics meteorològics.

Per canviar el mapa: feu clic els botons verds amb una creu de color negre per apropar; al botó verd amb un guió per allunyar la imatge; o en les fletxes verdes per a mapes adjacents.


METAR-TAF: